Forside
METAR-TAF:

METAR-TAF

Lufthavne :

Larnaca Internationale Lufthavn

Larnaca, Cypern

Breddekreds: 34-53N, længdekreds: 033-38E, højde: 2 m

Aktuelle vejr

Denne rapport blev lavet for 37 minutter siden, kl. 18:30 UTC
Vind 5 kt fra varierende retninger
Temperatur 26°C
Fugtighed 65%
Tryk 1010 hPa
Sigt 10 km eller mere
Nogle få skyer i en højde af 3500 ft

METAR: LCLK 221830Z VRB05KT 9999 FEW035 26/19 Q1010 NOSIG

Tid: 22:07 (19:07 UTC)

Vejrudsigter

Denne rapport blev lavet for 1 time og 37 minutter siden, kl. 17:30 UTC
Foreløbig gælder fra 22 på 18 UTC til 23 på 18 UTC
Vind 9 kt fra vest
Sigt 10 km eller mere
Nogle få skyer i en højde af 2500 ft
ændring
fra 22 på 07 UTC til 22 på 10 UTC
Vind 20 kt fra sydsydvest

TAF: LCLK 221730Z 2218/2318 28009KT 9999 FEW025 BECMG 2207/2210 21020KT

Vejrobservationer og prognoser fra mere end 4000 lufthavne (METAR og TAF).

De gule og røde prikker repræsenterer de meteorologiske stationer.

Flyt musen over at se navnet på stationen.

Så klik over at se vejr observationer og prognoser.

At skifte det kort: Klik på de grønne knapper med et sort kors for at zoome ind; på den grønne knap med en bindestreg for at zoome ud; eller på de grønne pile for tilstødende kort.


METAR-TAF: